Time;durP1;ratioP1;P1;durP2;ratioP2;P2;SDS_P1;SDS_P2;PMS_P1;PMS_P2;Temp;Humidity;BMP_temperature;BMP_pressure;BME280_temperature;BME280_humidity;BME280_pressure;Samples;Min_cycle;Max_cycle;Signal;HPM_P1;HPM_P2
2022/01/18 00:02:25;;;;;;;37.70;7.30;;;6.40;99.90;;;;;;5035609;28;20250;-41
2022/01/18 00:04:51;;;;;;;27.60;7.27;;;6.40;99.90;;;;;;5035068;28;20684;-41
2022/01/18 00:07:16;;;;;;;45.97;8.00;;;6.40;99.90;;;;;;5035158;28;20206;-41
2022/01/18 00:09:42;;;;;;;35.87;8.37;;;6.40;99.90;;;;;;5035364;28;20233;-39
2022/01/18 00:12:43;;;;;;;34.80;7.97;;;6.40;99.90;;;;;;5035074;28;20609;-41
2022/01/18 00:15:31;;;;;;;43.70;8.27;;;6.40;99.90;;;;;;5034842;28;20549;-42
2022/01/18 00:18:04;;;;;;;40.90;7.83;;;6.40;99.90;;;;;;5034616;28;20247;-42
2022/01/18 00:23:17;;;;;;;29.30;7.73;;;6.40;99.90;;;;;;5023769;28;20206;-40
2022/01/18 00:25:47;;;;;;;38.83;7.97;;;6.40;99.90;;;;;;5034731;28;20217;-43
2022/01/18 00:28:14;;;;;;;43.93;8.50;;;6.40;99.90;;;;;;5034772;28;20549;-43
2022/01/18 00:35:39;;;;;;;43.83;9.30;;;6.30;99.90;;;;;;5034441;28;20685;-41
2022/01/18 00:38:15;;;;;;;42.33;9.07;;;6.30;99.90;;;;;;5033177;28;20270;-43
2022/01/18 00:40:41;;;;;;;42.30;9.67;;;6.40;99.90;;;;;;5033172;28;20188;-42
2022/01/18 00:43:06;;;;;;;43.87;8.43;;;6.40;99.90;;;;;;5034076;28;20194;-40
2022/01/18 00:45:32;;;;;;;44.60;7.90;;;6.40;99.90;;;;;;5033074;28;20209;-43
2022/01/18 00:47:58;;;;;;;30.80;8.50;;;6.30;99.90;;;;;;5034497;28;20205;-43
2022/01/18 00:50:27;;;;;;;35.00;8.27;;;6.30;99.90;;;;;;5033491;28;20239;-44
2022/01/18 00:52:53;;;;;;;40.23;8.33;;;6.30;99.90;;;;;;5032883;28;20196;-41
2022/01/18 00:55:20;;;;;;;30.27;7.90;;;6.30;99.90;;;;;;5034016;28;20217;-42
2022/01/18 00:57:46;;;;;;;33.43;7.90;;;6.30;99.90;;;;;;5034393;28;20262;-42
2022/01/18 01:00:12;;;;;;;41.20;8.40;;;6.30;99.90;;;;;;5034090;28;20656;-43
2022/01/18 01:02:38;;;;;;;39.37;8.33;;;6.30;99.90;;;;;;5034067;28;20704;-41
2022/01/18 01:05:04;;;;;;;35.03;7.67;;;6.30;99.90;;;;;;5033868;28;20179;-44
2022/01/18 01:07:30;;;;;;;36.77;8.80;;;6.30;99.90;;;;;;5033880;28;20185;-43
2022/01/18 01:09:55;;;;;;;31.73;8.57;;;6.20;99.90;;;;;;5033935;28;20303;-41
2022/01/18 01:12:24;;;;;;;32.70;8.30;;;6.20;99.90;;;;;;5034096;28;20179;-41
2022/01/18 01:14:58;;;;;;;34.30;8.10;;;6.20;99.90;;;;;;5033744;28;20548;-42
2022/01/18 01:34:24;;;;;;;37.23;8.63;;;6.20;99.90;;;;;;5033521;28;20176;-41
2022/01/18 01:44:55;;;;;;;30.97;8.80;;;6.20;99.90;;;;;;5033835;28;20304;-44
2022/01/18 01:47:23;;;;;;;37.00;9.77;;;6.20;99.90;;;;;;5033181;28;20197;-43
2022/01/18 01:49:51;;;;;;;36.37;8.63;;;6.20;99.90;;;;;;5032095;28;20181;-42
2022/01/18 01:52:20;;;;;;;34.80;9.47;;;6.20;99.90;;;;;;5033341;28;20546;-42
2022/01/18 01:54:46;;;;;;;40.97;10.17;;;6.10;99.90;;;;;;5033237;28;20552;-44
2022/01/18 01:57:12;;;;;;;29.03;9.27;;;6.10;99.90;;;;;;5031943;28;20231;-46
2022/01/18 01:59:38;;;;;;;44.23;10.33;;;6.10;99.90;;;;;;5033503;28;20215;-45
2022/01/18 02:02:04;;;;;;;37.87;9.67;;;6.10;99.90;;;;;;5033189;28;20186;-46
2022/01/18 02:04:30;;;;;;;34.20;8.93;;;6.10;99.90;;;;;;5033439;28;20240;-47
2022/01/18 02:06:55;;;;;;;29.13;8.93;;;6.10;99.90;;;;;;5033094;28;20206;-46
2022/01/18 02:09:21;;;;;;;34.13;9.63;;;6.10;99.90;;;;;;5033104;28;20189;-47
2022/01/18 02:11:47;;;;;;;41.93;10.07;;;6.10;99.90;;;;;;5033387;28;20603;-46
2022/01/18 02:14:19;;;;;;;36.87;10.10;;;6.10;99.90;;;;;;5033383;28;20210;-47
2022/01/18 02:22:13;;;;;;;38.20;9.87;;;6.00;99.90;;;;;;5033146;28;20178;-46
2022/01/18 02:24:39;;;;;;;43.40;11.27;;;6.00;99.90;;;;;;5033074;28;20182;-46
2022/01/18 02:27:05;;;;;;;46.17;10.47;;;6.00;99.90;;;;;;5033146;28;20225;-46
2022/01/18 02:29:30;;;;;;;40.30;11.27;;;6.00;99.90;;;;;;5033460;28;20187;-44
2022/01/18 02:31:57;;;;;;;32.33;10.47;;;6.00;99.90;;;;;;5033200;28;20269;-46
2022/01/18 02:34:24;;;;;;;36.40;10.20;;;6.10;99.90;;;;;;5033136;28;20192;-47
2022/01/18 02:36:52;;;;;;;34.30;9.50;;;6.00;99.90;;;;;;5035723;28;20639;-44
2022/01/18 02:39:21;;;;;;;34.83;10.53;;;6.00;99.90;;;;;;5035431;28;20239;-45
2022/01/18 02:41:58;;;;;;;46.97;10.63;;;6.00;99.90;;;;;;5036666;28;20189;-47
2022/01/18 02:44:26;;;;;;;39.80;9.80;;;6.10;99.90;;;;;;5036796;28;20181;-47
2022/01/18 02:46:51;;;;;;;38.40;11.23;;;6.00;99.90;;;;;;5036812;28;20214;-46
2022/01/18 02:49:17;;;;;;;42.70;10.60;;;6.00;99.90;;;;;;5036395;28;20197;-45
2022/01/18 02:51:43;;;;;;;33.07;9.73;;;6.00;99.90;;;;;;5036545;28;20280;-47
2022/01/18 02:54:12;;;;;;;35.47;10.37;;;6.00;99.90;;;;;;5036514;28;20182;-45
2022/01/18 02:56:53;;;;;;;35.30;9.47;;;6.00;99.90;;;;;;5036546;28;20217;-46
2022/01/18 02:59:34;;;;;;;33.50;10.07;;;6.00;99.90;;;;;;5036604;28;20171;-46
2022/01/18 03:04:46;;;;;;;40.47;9.90;;;6.00;99.90;;;;;;5036353;28;20160;-47
2022/01/18 03:07:12;;;;;;;38.80;11.23;;;6.00;99.90;;;;;;5036134;28;20194;-45
2022/01/18 03:09:38;;;;;;;35.47;11.00;;;5.90;99.90;;;;;;5036928;28;20182;-47
2022/01/18 03:12:06;;;;;;;34.37;10.97;;;5.90;99.90;;;;;;5037047;28;20185;-45
2022/01/18 03:14:32;;;;;;;39.83;11.60;;;6.00;99.90;;;;;;5036071;28;20177;-45
2022/01/18 03:16:57;;;;;;;39.37;11.80;;;5.90;99.90;;;;;;5036216;28;20300;-44
2022/01/18 03:19:23;;;;;;;31.37;10.37;;;5.90;99.90;;;;;;5034842;28;20606;-44
2022/01/18 03:21:50;;;;;;;30.60;10.43;;;5.90;99.90;;;;;;5036104;28;20192;-44
2022/01/18 03:29:28;;;;;;;28.87;10.60;;;5.90;99.90;;;;;;5036015;28;20177;-45
2022/01/18 03:31:54;;;;;;;34.87;10.40;;;5.90;99.90;;;;;;5036100;28;20186;-48
2022/01/18 03:34:20;;;;;;;32.73;10.27;;;5.90;99.90;;;;;;5035712;28;20177;-47
2022/01/18 03:36:46;;;;;;;28.03;10.43;;;5.90;99.90;;;;;;5034325;28;20689;-45
2022/01/18 03:39:12;;;;;;;29.67;10.67;;;5.90;99.90;;;;;;5035881;28;20652;-47
2022/01/18 03:41:38;;;;;;;48.23;10.97;;;5.80;99.90;;;;;;5035605;28;20570;-44
2022/01/18 03:44:03;;;;;;;44.87;11.03;;;5.80;99.90;;;;;;5034244;28;20208;-46
2022/01/18 03:46:30;;;;;;;37.00;10.40;;;5.80;99.90;;;;;;5034926;28;20321;-46
2022/01/18 03:48:56;;;;;;;41.70;11.47;;;5.80;99.90;;;;;;5034184;28;20572;-47
2022/01/18 03:51:22;;;;;;;43.37;12.50;;;5.80;99.90;;;;;;5035370;28;20188;-45
2022/01/18 03:53:51;;;;;;;32.83;10.27;;;5.80;99.90;;;;;;5035655;28;20270;-46
2022/01/18 03:56:17;;;;;;;38.20;11.33;;;5.80;99.90;;;;;;5035259;28;20296;-45
2022/01/18 03:58:42;;;;;;;28.40;11.20;;;5.80;99.90;;;;;;5035303;28;20209;-45
2022/01/18 04:01:08;;;;;;;41.50;12.00;;;5.80;99.90;;;;;;5034091;28;20200;-45
2022/01/18 04:03:34;;;;;;;43.83;11.80;;;5.80;99.90;;;;;;5035207;28;20181;-46
2022/01/18 04:05:59;;;;;;;36.53;11.07;;;5.80;99.90;;;;;;5035369;28;20208;-44
2022/01/18 04:08:25;;;;;;;46.77;12.07;;;5.80;99.90;;;;;;5035367;28;20531;-44
2022/01/18 04:10:51;;;;;;;39.77;11.90;;;5.80;99.90;;;;;;5035331;28;20169;-45
2022/01/18 04:13:16;;;;;;;42.83;11.07;;;5.80;99.90;;;;;;5035563;28;20250;-45
2022/01/18 04:15:42;;;;;;;40.47;11.97;;;5.80;99.90;;;;;;5033528;28;20270;-49
2022/01/18 04:18:34;;;;;;;43.87;11.07;;;5.80;99.90;;;;;;5034961;28;20279;-46
2022/01/18 04:28:58;;;;;;;32.50;10.23;;;5.70;99.90;;;;;;5034665;28;20551;-47
2022/01/18 04:31:26;;;;;;;44.33;11.47;;;5.70;99.90;;;;;;5034912;28;20213;-44
2022/01/18 04:33:52;;;;;;;28.13;10.90;;;5.70;99.90;;;;;;5034700;28;20191;-45
2022/01/18 04:36:17;;;;;;;46.43;12.07;;;5.70;99.90;;;;;;5034503;28;20363;-45
2022/01/18 04:38:43;;;;;;;45.33;11.97;;;5.70;99.90;;;;;;5033655;28;20216;-46
2022/01/18 04:41:14;;;;;;;34.77;12.17;;;5.70;99.90;;;;;;5034721;28;20190;-45
2022/01/18 04:49:12;;;;;;;37.63;12.70;;;5.70;99.90;;;;;;5034347;28;20220;-47
2022/01/18 04:51:38;;;;;;;44.50;12.70;;;5.70;99.90;;;;;;5033066;28;20196;-49
2022/01/18 04:54:08;;;;;;;52.63;12.77;;;5.70;99.90;;;;;;5034419;28;20363;-47
2022/01/18 04:59:02;;;;;;;48.77;13.73;;;5.70;99.90;;;;;;5033278;28;20259;-44
2022/01/18 05:01:27;;;;;;;39.67;13.03;;;5.70;99.90;;;;;;5034130;28;20185;-47
2022/01/18 05:03:53;;;;;;;48.07;12.50;;;5.70;99.90;;;;;;5034641;28;20181;-45
2022/01/18 05:06:20;;;;;;;35.27;12.03;;;5.70;99.90;;;;;;5034065;28;20647;-48
2022/01/18 05:08:46;;;;;;;51.57;13.53;;;5.70;99.90;;;;;;5033902;28;20196;-47
2022/01/18 05:11:16;;;;;;;46.43;12.87;;;5.70;99.90;;;;;;5034178;28;20209;-48
2022/01/18 05:16:46;;;;;;;38.70;12.27;;;5.70;99.90;;;;;;5033908;28;20214;-46
2022/01/18 05:21:27;;;;;;;41.07;12.83;;;5.60;99.90;;;;;;5033941;28;20177;-45
2022/01/18 05:23:54;;;;;;;41.53;12.53;;;5.60;99.90;;;;;;5033702;28;20241;-47
2022/01/18 05:26:20;;;;;;;54.63;12.57;;;5.60;99.90;;;;;;5033735;28;20239;-46
2022/01/18 05:28:50;;;;;;;43.87;12.23;;;5.70;99.90;;;;;;5033635;28;20279;-43
2022/01/18 05:31:15;;;;;;;49.57;13.27;;;5.60;99.90;;;;;;5033556;28;20229;-46
2022/01/18 05:33:42;;;;;;;50.93;12.53;;;5.60;99.90;;;;;;5033833;28;20215;-47
2022/01/18 05:36:11;;;;;;;45.17;12.83;;;5.60;99.90;;;;;;5033598;28;20225;-45
2022/01/18 05:38:38;;;;;;;43.53;12.77;;;5.60;99.90;;;;;;5032256;28;20181;-45
2022/01/18 05:41:05;;;;;;;34.50;12.57;;;5.60;99.90;;;;;;5032202;28;20671;-44
2022/01/18 05:43:32;;;;;;;43.40;12.97;;;5.60;99.90;;;;;;5032148;28;20637;-44
2022/01/18 05:45:58;;;;;;;54.87;13.50;;;5.60;99.90;;;;;;5032064;28;20220;-44
2022/01/18 05:48:23;;;;;;;57.47;13.33;;;5.60;99.90;;;;;;5033208;28;20197;-45
2022/01/18 05:50:50;;;;;;;47.63;13.20;;;5.60;99.90;;;;;;5033542;28;20706;-44
2022/01/18 05:53:16;;;;;;;43.67;11.87;;;5.60;99.90;;;;;;5033527;28;20191;-48
2022/01/18 05:55:41;;;;;;;42.20;13.13;;;5.60;99.90;;;;;;5033095;28;20709;-46
2022/01/18 05:58:07;;;;;;;58.50;14.23;;;5.60;99.90;;;;;;5032027;28;20533;-47
2022/01/18 06:00:33;;;;;;;53.37;13.63;;;5.60;99.90;;;;;;5033322;28;20176;-45
2022/01/18 06:03:02;;;;;;;46.63;12.63;;;5.60;99.90;;;;;;5033210;28;20256;-44
2022/01/18 06:08:13;;;;;;;46.83;13.83;;;5.60;99.90;;;;;;5033483;28;20171;-44
2022/01/18 06:10:39;;;;;;;40.63;13.47;;;5.60;99.90;;;;;;5036525;28;20182;-48
2022/01/18 06:13:07;;;;;;;43.67;13.23;;;5.60;99.90;;;;;;5037215;28;20227;-47
2022/01/18 06:15:34;;;;;;;36.43;12.77;;;5.60;99.90;;;;;;5036992;28;20244;-45
2022/01/18 06:18:00;;;;;;;44.63;14.07;;;5.60;99.90;;;;;;5037666;28;20220;-46
2022/01/18 06:20:26;;;;;;;47.30;14.20;;;5.60;99.90;;;;;;5037053;28;20185;-45
2022/01/18 06:22:51;;;;;;;40.93;14.73;;;5.50;99.90;;;;;;5037030;28;20187;-45
2022/01/18 06:25:18;;;;;;;54.07;14.27;;;5.50;99.90;;;;;;5036969;28;20198;-44
2022/01/18 06:27:44;;;;;;;49.10;13.60;;;5.50;99.90;;;;;;5037223;28;20191;-44
2022/01/18 06:30:10;;;;;;;50.40;15.27;;;5.50;99.90;;;;;;5036915;28;20185;-45
2022/01/18 06:32:38;;;;;;;47.77;14.07;;;5.50;99.90;;;;;;5037653;28;20588;-45
2022/01/18 06:35:05;;;;;;;45.97;13.33;;;5.50;99.90;;;;;;5036673;28;20190;-44
2022/01/18 06:37:31;;;;;;;50.60;14.33;;;5.50;99.90;;;;;;5036684;28;20585;-46
2022/01/18 06:40:01;;;;;;;45.63;16.97;;;5.50;99.90;;;;;;5036748;28;20211;-46
2022/01/18 06:42:27;;;;;;;59.77;16.40;;;5.50;99.90;;;;;;5036680;28;20227;-48
2022/01/18 06:44:53;;;;;;;60.83;16.30;;;5.50;99.90;;;;;;5036727;28;20170;-45
2022/01/18 06:47:19;;;;;;;48.37;15.77;;;5.50;99.90;;;;;;5036412;28;20242;-46
2022/01/18 06:49:45;;;;;;;58.23;17.60;;;5.40;99.90;;;;;;5036833;28;20258;-49
2022/01/18 06:52:11;;;;;;;56.90;17.10;;;5.40;99.90;;;;;;5036517;28;20253;-45
2022/01/18 06:54:37;;;;;;;63.50;18.47;;;5.40;99.90;;;;;;5035235;28;20550;-47
2022/01/18 06:57:03;;;;;;;79.03;19.47;;;5.40;99.90;;;;;;5036242;28;20292;-47
2022/01/18 06:59:29;;;;;;;70.23;22.67;;;5.40;99.90;;;;;;5035067;28;20267;-45
2022/01/18 07:01:54;;;;;;;72.93;24.17;;;5.40;99.90;;;;;;5035067;28;20589;-46
2022/01/18 07:04:20;;;;;;;78.53;23.67;;;5.40;99.90;;;;;;5036321;28;20177;-45
2022/01/18 07:06:46;;;;;;;65.50;23.67;;;5.40;99.90;;;;;;5034826;28;20206;-49
2022/01/18 07:09:13;;;;;;;63.90;23.10;;;5.40;99.90;;;;;;5037352;28;20185;-46
2022/01/18 07:11:39;;;;;;;58.60;22.20;;;5.40;99.90;;;;;;5035363;28;20542;-47
2022/01/18 07:14:05;;;;;;;62.27;23.70;;;5.40;99.90;;;;;;5036035;28;20693;-48
2022/01/18 07:16:30;;;;;;;53.90;21.90;;;5.40;99.90;;;;;;5036057;28;20205;-48
2022/01/18 07:18:56;;;;;;;59.27;20.60;;;5.40;99.90;;;;;;5036351;28;20304;-49
2022/01/18 07:21:22;;;;;;;49.20;20.63;;;5.40;99.90;;;;;;5035022;28;20178;-48
2022/01/18 07:23:48;;;;;;;52.40;19.80;;;5.40;99.90;;;;;;5035902;28;20655;-47
2022/01/18 07:26:13;;;;;;;63.20;20.70;;;5.40;99.90;;;;;;5035792;28;20228;-46
2022/01/18 07:28:39;;;;;;;60.07;19.70;;;5.40;99.90;;;;;;5036101;28;20181;-48
2022/01/18 07:31:04;;;;;;;58.53;19.93;;;5.40;99.90;;;;;;5035765;28;20177;-47
2022/01/18 07:33:30;;;;;;;58.07;21.20;;;5.40;99.90;;;;;;5035754;28;20226;-46
2022/01/18 07:35:56;;;;;;;74.20;21.40;;;5.40;99.90;;;;;;5035682;28;20209;-47
2022/01/18 07:38:21;;;;;;;49.20;20.53;;;5.30;99.90;;;;;;5035736;28;20177;-47
2022/01/18 07:40:49;;;;;;;56.83;19.87;;;5.40;99.90;;;;;;5036183;28;20295;-46
2022/01/18 07:43:17;;;;;;;60.40;21.73;;;5.30;99.90;;;;;;5035787;28;20183;-46
2022/01/18 07:45:47;;;;;;;65.63;22.00;;;5.40;99.90;;;;;;5035636;28;20205;-48
2022/01/18 07:48:13;;;;;;;60.63;21.93;;;5.40;99.90;;;;;;5035545;28;20243;-47
2022/01/18 07:50:40;;;;;;;68.33;22.43;;;5.40;99.90;;;;;;5034189;28;20263;-46
2022/01/18 07:53:07;;;;;;;67.97;21.27;;;5.40;99.90;;;;;;5035457;28;20185;-45
2022/01/18 07:55:33;;;;;;;57.97;20.30;;;5.40;99.90;;;;;;5035509;28;20209;-47
2022/01/18 07:58:00;;;;;;;59.17;22.67;;;5.40;99.90;;;;;;5035825;28;20625;-44
2022/01/18 08:00:25;;;;;;;57.13;22.17;;;5.40;99.90;;;;;;5035280;28;20174;-47
2022/01/18 08:02:51;;;;;;;67.03;24.50;;;5.40;99.90;;;;;;5034015;28;20751;-47
2022/01/18 08:05:18;;;;;;;73.53;24.73;;;5.40;99.90;;;;;;5035104;28;20185;-46
2022/01/18 08:07:43;;;;;;;60.33;22.87;;;5.40;99.90;;;;;;5035156;28;20184;-46
2022/01/18 08:10:11;;;;;;;74.57;24.30;;;5.40;99.90;;;;;;5035280;28;20173;-46
2022/01/18 08:12:37;;;;;;;77.13;25.17;;;5.40;99.90;;;;;;5035076;28;20177;-44
2022/01/18 08:15:13;;;;;;;62.70;23.23;;;5.40;99.90;;;;;;5034866;28;20263;-44
2022/01/18 08:17:40;;;;;;;65.47;24.73;;;5.40;99.90;;;;;;5035208;28;20267;-46
2022/01/18 08:20:06;;;;;;;77.87;25.03;;;5.50;99.90;;;;;;5035135;28;20247;-46
2022/01/18 08:22:32;;;;;;;77.20;26.07;;;5.40;99.90;;;;;;5034894;28;20180;-48
2022/01/18 08:24:57;;;;;;;81.30;26.47;;;5.50;99.90;;;;;;5033430;28;20271;-47
2022/01/18 08:27:23;;;;;;;96.73;27.67;;;5.50;99.90;;;;;;5035264;28;20579;-47
2022/01/18 08:29:48;;;;;;;86.73;28.93;;;5.50;99.90;;;;;;5034607;28;20192;-45
2022/01/18 08:32:15;;;;;;;86.00;27.73;;;5.50;99.90;;;;;;5033233;28;20280;-47
2022/01/18 08:34:41;;;;;;;87.30;28.47;;;5.50;99.90;;;;;;5034606;28;20248;-49
2022/01/18 08:37:07;;;;;;;95.57;29.30;;;5.60;99.90;;;;;;5033244;28;20248;-46
2022/01/18 08:39:32;;;;;;;91.77;27.53;;;5.60;99.90;;;;;;5034508;28;20179;-48
2022/01/18 08:41:58;;;;;;;99.50;29.77;;;5.60;99.90;;;;;;5034633;28;20193;-46
2022/01/18 08:44:23;;;;;;;116.70;32.10;;;5.60;99.90;;;;;;5034378;28;20181;-48
2022/01/18 08:46:49;;;;;;;113.23;31.50;;;5.60;99.90;;;;;;5034357;28;20235;-45
2022/01/18 08:49:15;;;;;;;107.27;33.43;;;5.70;99.90;;;;;;5034126;28;20200;-47
2022/01/18 08:51:40;;;;;;;107.87;36.00;;;5.70;99.90;;;;;;5034216;28;20281;-48
2022/01/18 08:54:07;;;;;;;102.37;36.30;;;5.70;99.90;;;;;;5034412;28;20186;-45
2022/01/18 08:56:32;;;;;;;99.90;35.47;;;5.80;99.90;;;;;;5034245;28;20240;-47
2022/01/18 08:58:58;;;;;;;105.00;36.13;;;5.80;99.90;;;;;;5034439;28;20235;-45
2022/01/18 09:01:24;;;;;;;117.87;36.67;;;5.80;99.90;;;;;;5032852;28;20280;-47
2022/01/18 09:03:50;;;;;;;113.67;40.03;;;5.80;99.90;;;;;;5032776;28;20185;-47
2022/01/18 09:06:17;;;;;;;116.33;39.33;;;5.80;99.90;;;;;;5034269;28;20193;-44
2022/01/18 09:08:43;;;;;;;105.43;42.33;;;5.80;99.90;;;;;;5033924;28;20177;-46
2022/01/18 09:11:13;;;;;;;132.63;43.33;;;5.90;99.90;;;;;;5034172;28;20193;-46
2022/01/18 09:13:40;;;;;;;138.57;44.77;;;5.90;99.90;;;;;;5032625;28;20180;-45
2022/01/18 09:16:06;;;;;;;119.20;40.23;;;5.90;99.90;;;;;;5033645;28;20209;-47
2022/01/18 09:18:35;;;;;;;128.57;41.73;;;5.90;99.90;;;;;;5032501;28;20188;-47
2022/01/18 09:21:00;;;;;;;124.77;41.40;;;6.00;99.90;;;;;;5033863;28;20173;-46
2022/01/18 09:23:27;;;;;;;119.43;39.60;;;6.00;99.90;;;;;;5033783;28;20641;-41
2022/01/18 09:25:53;;;;;;;130.63;40.33;;;6.00;99.90;;;;;;5033913;28;20566;-42
2022/01/18 09:28:18;;;;;;;123.83;40.40;;;6.10;99.90;;;;;;5033153;28;20223;-41
2022/01/18 09:30:44;;;;;;;131.73;39.73;;;6.10;99.90;;;;;;5033845;28;20641;-42
2022/01/18 09:33:10;;;;;;;132.20;39.37;;;6.10;99.90;;;;;;5033485;28;20182;-42
2022/01/18 09:35:37;;;;;;;130.53;39.90;;;6.20;99.90;;;;;;5033545;28;20215;-42
2022/01/18 09:38:04;;;;;;;115.07;40.23;;;6.20;99.90;;;;;;5032205;28;20181;-43
2022/01/18 09:40:33;;;;;;;122.77;39.00;;;6.20;99.90;;;;;;5033783;28;20693;-41
2022/01/18 09:43:00;;;;;;;128.90;35.93;;;6.20;99.90;;;;;;5032160;28;20553;-42
2022/01/18 09:45:28;;;;;;;119.93;36.97;;;6.30;99.90;;;;;;5031637;28;20212;-40
2022/01/18 09:47:56;;;;;;;128.40;36.77;;;6.30;99.90;;;;;;5033238;28;20276;-42
2022/01/18 09:50:27;;;;;;;127.63;35.87;;;6.30;99.90;;;;;;5033499;28;20274;-41
2022/01/18 09:52:55;;;;;;;122.87;36.67;;;6.30;99.90;;;;;;5034107;28;20186;-41
2022/01/18 09:55:23;;;;;;;125.70;36.67;;;6.40;99.90;;;;;;5033681;28;20210;-42
2022/01/18 09:57:50;;;;;;;129.77;37.50;;;6.40;99.90;;;;;;5033533;28;20238;-41
2022/01/18 10:00:17;;;;;;;112.40;33.30;;;6.40;99.90;;;;;;5033274;28;20179;-42
2022/01/18 10:02:43;;;;;;;123.33;34.73;;;6.50;99.90;;;;;;5031914;28;20179;-41
2022/01/18 10:05:27;;;;;;;114.70;33.60;;;6.60;99.90;;;;;;5033091;28;20194;-43
2022/01/18 10:08:05;;;;;;;118.23;33.77;;;6.60;99.90;;;;;;5033323;28;20204;-42
2022/01/18 10:11:02;;;;;;;104.47;31.03;;;6.60;99.90;;;;;;5033621;28;20184;-44
2022/01/18 10:13:33;;;;;;;77.83;26.40;;;6.70;99.90;;;;;;5028040;28;20643;-43
2022/01/18 10:16:21;;;;;;;72.07;24.03;;;6.80;99.90;;;;;;5032927;28;20294;-42
2022/01/18 10:19:05;;;;;;;71.57;21.77;;;6.80;99.90;;;;;;5033384;28;20163;-44
2022/01/18 10:21:39;;;;;;;70.67;22.53;;;6.80;99.90;;;;;;5033111;28;20158;-43
2022/01/18 10:24:20;;;;;;;64.83;22.63;;;6.80;99.90;;;;;;5033605;28;20195;-42
2022/01/18 10:26:48;;;;;;;61.70;22.30;;;6.80;99.90;;;;;;5032978;28;20203;-42
2022/01/18 10:29:16;;;;;;;55.80;21.77;;;6.80;99.90;;;;;;5032995;28;20191;-43
2022/01/18 10:34:41;;;;;;;61.60;22.73;;;6.90;99.90;;;;;;5033612;28;20198;-42
2022/01/18 10:37:18;;;;;;;57.93;21.73;;;6.90;99.90;;;;;;5033010;28;20222;-43
2022/01/18 10:39:50;;;;;;;76.20;25.87;;;7.00;99.90;;;;;;5033132;28;20160;-43
2022/01/18 10:42:21;;;;;;;65.30;22.87;;;6.10;99.90;;;;;;5032831;28;20336;-43
2022/01/18 10:44:58;;;;;;;64.07;22.17;;;7.10;99.90;;;;;;5033142;28;20156;-42
2022/01/18 10:47:24;;;;;;;56.40;21.87;;;7.10;99.90;;;;;;5031426;28;20691;-41
2022/01/18 10:49:50;;;;;;;63.50;23.47;;;7.20;99.90;;;;;;5032855;28;20176;-43
2022/01/18 10:52:22;;;;;;;57.63;22.27;;;7.20;99.90;;;;;;5032681;28;20704;-42
2022/01/18 10:54:54;;;;;;;62.47;22.30;;;7.40;99.90;;;;;;5032802;28;20663;-45
2022/01/18 10:57:22;;;;;;;56.00;22.07;;;7.40;99.90;;;;;;5035051;28;20219;-43
2022/01/18 10:59:54;;;;;;;59.67;23.87;;;7.40;99.90;;;;;;5036436;28;20187;-41
2022/01/18 11:02:20;;;;;;;42.70;20.30;;;7.50;99.90;;;;;;5036656;28;20226;-43
2022/01/18 11:04:50;;;;;;;53.30;20.20;;;7.50;99.90;;;;;;5036295;28;20176;-41
2022/01/18 11:07:21;;;;;;;54.93;20.90;;;7.60;99.90;;;;;;5036449;28;20621;-42
2022/01/18 11:09:47;;;;;;;61.63;21.37;;;7.60;99.90;;;;;;5036564;28;20197;-42
2022/01/18 11:12:13;;;;;;;45.60;17.63;;;7.60;99.90;;;;;;5036418;28;20215;-44
2022/01/18 11:14:44;;;;;;;47.87;17.70;;;7.60;99.90;;;;;;5036060;28;20204;-41
2022/01/18 11:17:19;;;;;;;45.97;18.57;;;7.60;99.90;;;;;;5035930;28;20685;-41
2022/01/18 11:19:48;;;;;;;39.77;17.10;;;7.60;99.90;;;;;;5036282;28;20187;-41
2022/01/18 11:22:14;;;;;;;37.43;16.70;;;7.50;99.90;;;;;;5034723;28;20234;-42
2022/01/18 11:24:42;;;;;;;31.77;15.93;;;7.50;99.90;;;;;;5035907;28;20284;-43
2022/01/18 11:27:13;;;;;;;32.83;16.00;;;7.60;99.90;;;;;;5036072;28;20263;-41
2022/01/18 11:29:43;;;;;;;28.67;14.77;;;7.70;99.90;;;;;;5035952;28;20173;-44
2022/01/18 11:32:10;;;;;;;38.77;12.97;;;7.80;99.90;;;;;;5036057;28;20558;-44
2022/01/18 11:35:04;;;;;;;31.47;13.40;;;7.90;99.90;;;;;;5036095;28;20237;-43
2022/01/18 11:37:46;;;;;;;27.03;11.90;;;7.90;99.90;;;;;;5035813;28;20196;-43
2022/01/18 11:40:15;;;;;;;27.00;11.90;;;7.80;99.90;;;;;;5036235;28;20161;-44
2022/01/18 11:42:54;;;;;;;25.57;12.63;;;7.80;99.90;;;;;;5035755;28;20211;-44
2022/01/18 11:45:25;;;;;;;31.93;12.23;;;7.80;99.90;;;;;;5035564;28;20193;-43
2022/01/18 11:48:12;;;;;;;30.03;10.70;;;7.90;99.90;;;;;;5035475;28;20207;-43
2022/01/18 11:50:50;;;;;;;27.70;11.70;;;7.90;99.90;;;;;;5035629;28;20196;-43
2022/01/18 11:53:38;;;;;;;20.03;9.33;;;8.00;99.90;;;;;;5035646;28;20165;-41
2022/01/18 11:56:05;;;;;;;23.57;10.00;;;8.10;99.90;;;;;;5035342;28;20219;-42
2022/01/18 11:58:31;;;;;;;21.40;9.50;;;8.10;99.90;;;;;;5035431;28;20177;-43
2022/01/18 12:00:59;;;;;;;20.90;10.00;;;8.20;99.90;;;;;;5035240;28;20190;-43
2022/01/18 12:03:41;;;;;;;25.23;10.13;;;8.20;99.90;;;;;;5035759;28;20223;-44
2022/01/18 12:06:07;;;;;;;26.30;11.20;;;8.30;99.90;;;;;;5033888;28;20236;-43
2022/01/18 12:08:44;;;;;;;21.30;10.13;;;8.40;99.90;;;;;;5034769;28;20707;-42
2022/01/18 12:11:27;;;;;;;22.17;10.10;;;8.50;99.90;;;;;;5035844;28;20509;-43
2022/01/18 12:13:58;;;;;;;23.10;9.77;;;8.50;99.90;;;;;;5035117;28;20180;-45
2022/01/18 12:16:29;;;;;;;25.83;9.10;;;8.60;99.90;;;;;;5033709;28;20214;-43
2022/01/18 12:18:58;;;;;;;24.90;10.10;;;8.70;99.90;;;;;;5035887;28;20586;-45
2022/01/18 12:21:28;;;;;;;22.00;9.23;;;8.70;99.90;;;;;;5034956;28;20596;-43
2022/01/18 12:24:11;;;;;;;24.53;9.50;;;8.80;99.90;;;;;;5033670;28;20236;-43
2022/01/18 12:26:41;;;;;;;22.77;9.80;;;8.90;99.90;;;;;;5035007;28;20210;-44
2022/01/18 12:29:46;;;;;;;21.60;9.80;;;8.90;99.90;;;;;;5034692;28;20197;-43
2022/01/18 12:32:21;;;;;;;21.83;10.07;;;9.00;99.90;;;;;;5034560;28;20719;-43
2022/01/18 12:34:50;;;;;;;22.07;10.43;;;9.10;99.90;;;;;;5034792;28;20158;-45
2022/01/18 12:37:20;;;;;;;16.73;9.53;;;9.20;99.90;;;;;;5034509;28;20221;-43
2022/01/18 12:40:03;;;;;;;23.70;11.37;;;9.30;99.90;;;;;;5035081;28;20266;-42
2022/01/18 12:45:12;;;;;;;24.27;10.63;;;9.30;99.90;;;;;;5034471;28;20226;-44
2022/01/18 12:48:02;;;;;;;20.07;10.60;;;9.50;99.90;;;;;;5034294;28;20193;-44
2022/01/18 12:50:38;;;;;;;25.53;10.03;;;9.60;99.90;;;;;;5034660;28;20204;-42
2022/01/18 12:53:10;;;;;;;23.87;10.77;;;9.80;99.90;;;;;;5033174;28;20272;-43
2022/01/18 12:55:48;;;;;;;26.07;11.10;;;9.90;99.90;;;;;;5033138;28;20220;-42
2022/01/18 12:58:17;;;;;;;30.37;11.93;;;10.00;99.90;;;;;;5033196;28;20638;-44
2022/01/18 13:00:47;;;;;;;22.20;11.07;;;10.10;99.90;;;;;;5033141;28;20632;-43
2022/01/18 13:03:25;;;;;;;24.50;12.13;;;10.30;99.90;;;;;;5033015;28;20270;-43
2022/01/18 13:05:57;;;;;;;23.20;11.13;;;10.30;99.90;;;;;;5034237;28;20200;-43
2022/01/18 13:08:39;;;;;;;28.80;12.50;;;10.40;99.90;;;;;;5034844;28;20179;-42
2022/01/18 13:11:05;;;;;;;25.23;12.03;;;10.50;99.90;;;;;;5034664;28;20673;-45
2022/01/18 13:13:32;;;;;;;24.10;12.73;;;10.60;99.90;;;;;;5033905;28;20176;-42
2022/01/18 13:24:36;;;;;;;21.60;11.57;;;10.70;99.90;;;;;;5034321;28;20606;-41
2022/01/18 13:27:07;;;;;;;22.47;10.60;;;10.70;99.90;;;;;;5033587;28;20672;-43
2022/01/18 13:29:33;;;;;;;21.60;11.13;;;10.60;99.90;;;;;;5033987;28;20172;-44
2022/01/18 13:32:18;;;;;;;22.57;10.30;;;10.60;99.90;;;;;;5033745;28;20181;-44
2022/01/18 13:34:47;;;;;;;17.73;9.70;;;10.60;99.90;;;;;;5033643;28;20173;-44
2022/01/18 13:37:16;;;;;;;19.97;10.37;;;10.50;99.90;;;;;;5032173;28;20217;-44
2022/01/18 13:39:51;;;;;;;18.13;9.33;;;10.50;99.90;;;;;;5033583;28;20517;-42
2022/01/18 13:42:29;;;;;;;18.67;9.30;;;10.50;99.90;;;;;;5033713;28;20529;-42
2022/01/18 13:45:12;;;;;;;19.17;9.17;;;10.50;99.90;;;;;;5033547;28;20170;-43
2022/01/18 13:47:46;;;;;;;18.03;9.33;;;10.50;99.90;;;;;;5032277;28;20587;-44
2022/01/18 13:50:31;;;;;;;14.70;8.90;;;10.40;99.90;;;;;;5033705;28;20598;-43
2022/01/18 13:53:02;;;;;;;21.07;9.40;;;10.50;99.90;;;;;;5033950;28;20252;-44
2022/01/18 13:55:30;;;;;;;18.87;8.33;;;10.40;99.90;;;;;;5033703;28;20279;-44
2022/01/18 13:57:57;;;;;;;18.43;8.73;;;10.50;99.90;;;;;;5031996;28;20180;-43
2022/01/18 14:00:27;;;;;;;18.03;8.87;;;10.40;99.90;;;;;;5032003;28;20203;-44
2022/01/18 14:02:53;;;;;;;18.07;8.57;;;10.40;99.90;;;;;;5033225;28;20181;-45
2022/01/18 14:05:21;;;;;;;22.77;8.33;;;10.30;99.90;;;;;;5033132;28;20204;-43
2022/01/18 14:07:48;;;;;;;17.27;7.90;;;10.30;99.90;;;;;;5031882;28;20672;-43
2022/01/18 14:10:15;;;;;;;20.43;7.60;;;10.30;99.90;;;;;;5033390;28;20181;-43
2022/01/18 14:12:41;;;;;;;18.20;8.53;;;10.30;99.90;;;;;;5033438;28;20189;-43